createdAt,value
2024-02-29T00:00:05.128Z,995.74
2024-02-29T00:00:16.146Z,995.73
2024-02-29T00:00:26.663Z,995.73
2024-02-29T00:00:37.276Z,995.72
2024-02-29T00:00:47.731Z,995.72
2024-02-29T00:00:58.169Z,995.72
2024-02-29T00:01:08.683Z,995.72
2024-02-29T00:01:19.202Z,995.72
2024-02-29T00:01:29.769Z,995.72
2024-02-29T00:01:40.788Z,995.71
2024-02-29T00:01:51.194Z,995.70
2024-02-29T00:02:02.206Z,995.71
2024-02-29T00:02:12.635Z,995.70
2024-02-29T00:02:23.151Z,995.70
2024-02-29T00:02:33.652Z,995.70
2024-02-29T00:02:44.157Z,995.70
2024-02-29T00:02:54.654Z,995.70
2024-02-29T00:03:05.152Z,995.70
2024-02-29T00:03:15.660Z,995.70
2024-02-29T00:03:26.168Z,995.70
2024-02-29T00:03:36.747Z,995.69
2024-02-29T00:03:47.213Z,995.69
2024-02-29T00:03:57.729Z,995.69
2024-02-29T00:04:08.235Z,995.69
2024-02-29T00:04:18.662Z,995.69
2024-02-29T00:04:29.176Z,995.69
2024-02-29T00:04:39.678Z,995.69
2024-02-29T00:04:50.178Z,995.69
2024-02-29T00:05:00.692Z,995.68
2024-02-29T00:05:11.802Z,995.68
2024-02-29T00:05:22.182Z,995.68
2024-02-29T00:05:32.679Z,995.68
2024-02-29T00:05:43.201Z,995.68
2024-02-29T00:05:53.695Z,995.68
2024-02-29T00:06:04.197Z,995.68
2024-02-29T00:06:14.701Z,995.68
2024-02-29T00:06:25.201Z,995.68
2024-02-29T00:06:35.750Z,995.68
2024-02-29T00:06:46.232Z,995.68
2024-02-29T00:06:56.735Z,995.68
2024-02-29T00:07:07.317Z,995.67
2024-02-29T00:07:17.703Z,995.66
2024-02-29T00:07:28.211Z,995.66
2024-02-29T00:07:38.845Z,995.66
2024-02-29T00:07:49.218Z,995.66
2024-02-29T00:07:59.715Z,995.66
2024-02-29T00:08:10.208Z,995.66
2024-02-29T00:08:21.222Z,995.65
2024-02-29T00:08:32.213Z,995.66
2024-02-29T00:08:42.717Z,995.65
2024-02-29T00:08:53.775Z,995.66
2024-02-29T00:09:04.236Z,995.66
2024-02-29T00:09:14.713Z,995.66
2024-02-29T00:09:25.235Z,995.66
2024-02-29T00:09:35.775Z,995.66
2024-02-29T00:09:46.255Z,995.66
2024-02-29T00:09:56.771Z,995.66
2024-02-29T00:10:07.289Z,995.65
2024-02-29T00:10:17.759Z,995.65
2024-02-29T00:10:28.240Z,995.65
2024-02-29T00:10:38.809Z,995.65
2024-02-29T00:10:49.293Z,995.64
2024-02-29T00:10:59.769Z,995.64
2024-02-29T00:11:10.299Z,995.64
2024-02-29T00:11:20.781Z,995.64
2024-02-29T00:11:31.328Z,995.64
2024-02-29T00:11:41.752Z,995.64
2024-02-29T00:11:52.265Z,995.64
2024-02-29T00:12:02.776Z,995.63
2024-02-29T00:12:13.279Z,995.63
2024-02-29T00:12:23.780Z,995.63
2024-02-29T00:12:34.290Z,995.62
2024-02-29T00:12:44.795Z,995.62
2024-02-29T00:12:55.319Z,995.62
2024-02-29T00:13:06.376Z,995.62
2024-02-29T00:13:16.811Z,995.62
2024-02-29T00:13:27.290Z,995.61
2024-02-29T00:13:37.799Z,995.61
2024-02-29T00:13:48.311Z,995.61
2024-02-29T00:13:58.826Z,995.60
2024-02-29T00:14:09.298Z,995.60
2024-02-29T00:14:19.807Z,995.59
2024-02-29T00:14:30.314Z,995.59
2024-02-29T00:14:41.346Z,995.59
2024-02-29T00:14:51.814Z,995.58
2024-02-29T00:15:02.350Z,995.58
2024-02-29T00:15:12.806Z,995.58
2024-02-29T00:15:23.809Z,995.58
2024-02-29T00:15:34.347Z,995.58
2024-02-29T00:15:44.889Z,995.58
2024-02-29T00:15:55.338Z,995.58
2024-02-29T00:16:05.878Z,995.57
2024-02-29T00:16:16.363Z,995.57
2024-02-29T00:16:27.320Z,995.57
2024-02-29T00:16:37.829Z,995.57
2024-02-29T00:16:48.343Z,995.57
2024-02-29T00:16:58.822Z,995.57
2024-02-29T00:17:09.336Z,995.58
2024-02-29T00:17:19.829Z,995.58
2024-02-29T00:17:30.357Z,995.58
2024-02-29T00:17:41.325Z,995.58
2024-02-29T00:17:51.871Z,995.58
2024-02-29T00:18:02.358Z,995.59
2024-02-29T00:18:12.864Z,995.58
2024-02-29T00:18:23.330Z,995.59
2024-02-29T00:18:33.928Z,995.59
2024-02-29T00:18:44.401Z,995.58
2024-02-29T00:18:55.375Z,995.58
2024-02-29T00:19:05.927Z,995.58
2024-02-29T00:19:16.408Z,995.58
2024-02-29T00:19:26.837Z,995.58
2024-02-29T00:19:37.343Z,995.58
2024-02-29T00:19:47.904Z,995.58
2024-02-29T00:19:58.341Z,995.59
2024-02-29T00:20:08.856Z,995.58
2024-02-29T00:20:19.469Z,995.58
2024-02-29T00:20:29.845Z,995.58
2024-02-29T00:20:40.347Z,995.57
2024-02-29T00:20:50.860Z,995.57
2024-02-29T00:21:01.360Z,995.57
2024-02-29T00:21:11.853Z,995.57
2024-02-29T00:21:22.361Z,995.58
2024-02-29T00:21:33.395Z,995.58
2024-02-29T00:21:43.897Z,995.58
2024-02-29T00:21:54.385Z,995.57
2024-02-29T00:22:04.943Z,995.57
2024-02-29T00:22:15.464Z,995.57
2024-02-29T00:22:25.884Z,995.57
2024-02-29T00:22:36.378Z,995.57
2024-02-29T00:22:46.883Z,995.58
2024-02-29T00:22:57.386Z,995.57
2024-02-29T00:23:07.889Z,995.58
2024-02-29T00:23:18.383Z,995.57
2024-02-29T00:23:28.896Z,995.58
2024-02-29T00:23:39.379Z,995.57
2024-02-29T00:23:49.898Z,995.57
2024-02-29T00:24:00.413Z,995.57
2024-02-29T00:24:10.907Z,995.57
2024-02-29T00:24:21.405Z,995.57
2024-02-29T00:24:32.431Z,995.57
2024-02-29T00:24:43.433Z,995.57
2024-02-29T00:24:53.978Z,995.57
2024-02-29T00:25:04.466Z,995.57
2024-02-29T00:25:14.971Z,995.57
2024-02-29T00:25:25.404Z,995.57
2024-02-29T00:25:35.902Z,995.57
2024-02-29T00:25:46.424Z,995.57
2024-02-29T00:25:56.900Z,995.57
2024-02-29T00:26:07.920Z,995.56
2024-02-29T00:26:18.914Z,995.56
2024-02-29T00:26:29.901Z,995.56
2024-02-29T00:26:40.408Z,995.56
2024-02-29T00:26:50.909Z,995.55
2024-02-29T00:27:01.403Z,995.55
2024-02-29T00:27:11.905Z,995.55
2024-02-29T00:27:22.407Z,995.54
2024-02-29T00:27:33.461Z,995.54
2024-02-29T00:27:44.436Z,995.54
2024-02-29T00:27:54.959Z,995.54
2024-02-29T00:28:05.501Z,995.54
2024-02-29T00:28:15.931Z,995.54
2024-02-29T00:28:26.920Z,995.53
2024-02-29T00:28:37.403Z,995.53
2024-02-29T00:28:47.906Z,995.53
2024-02-29T00:28:58.413Z,995.53
2024-02-29T00:29:08.912Z,995.53
2024-02-29T00:29:19.411Z,995.52
2024-02-29T00:29:30.430Z,995.52
2024-02-29T00:29:40.910Z,995.52
2024-02-29T00:29:51.429Z,995.52
2024-02-29T00:30:02.467Z,995.52
2024-02-29T00:30:13.448Z,995.52
2024-02-29T00:30:23.915Z,995.53
2024-02-29T00:30:34.449Z,995.52
2024-02-29T00:30:45.473Z,995.52
2024-02-29T00:30:56.496Z,995.52
2024-02-29T00:31:07.032Z,995.51
2024-02-29T00:31:17.488Z,995.51
2024-02-29T00:31:28.422Z,995.51
2024-02-29T00:31:38.992Z,995.51
2024-02-29T00:31:49.414Z,995.51
2024-02-29T00:32:00.414Z,995.51
2024-02-29T00:32:10.924Z,995.51
2024-02-29T00:32:21.416Z,995.51
2024-02-29T00:32:31.922Z,995.51
2024-02-29T00:32:42.445Z,995.51
2024-02-29T00:32:55.343Z,995.50
2024-02-29T00:33:03.962Z,995.50
2024-02-29T00:33:14.498Z,995.49
2024-02-29T00:33:25.544Z,995.50
2024-02-29T00:33:36.486Z,995.50
2024-02-29T00:33:47.453Z,995.49
2024-02-29T00:33:57.990Z,995.49
2024-02-29T00:34:08.477Z,995.50
2024-02-29T00:34:18.987Z,995.49
2024-02-29T00:34:29.474Z,995.49
2024-02-29T00:34:39.920Z,995.50
2024-02-29T00:34:50.419Z,995.50
2024-02-29T00:35:00.921Z,995.50
2024-02-29T00:35:11.432Z,995.50
2024-02-29T00:35:21.941Z,995.49
2024-02-29T00:35:32.420Z,995.50
2024-02-29T00:35:48.792Z,995.49
2024-02-29T00:36:09.781Z,995.49
2024-02-29T00:36:16.436Z,995.49
2024-02-29T00:36:26.505Z,995.49
2024-02-29T00:36:36.947Z,995.49
2024-02-29T00:36:47.471Z,995.49
2024-02-29T00:36:58.441Z,995.49
2024-02-29T00:37:08.964Z,995.49
2024-02-29T00:37:19.482Z,995.49
2024-02-29T00:37:29.985Z,995.48
2024-02-29T00:37:40.439Z,995.47
2024-02-29T00:37:50.933Z,995.46
2024-02-29T00:38:01.446Z,995.46
2024-02-29T00:38:11.944Z,995.46
2024-02-29T00:38:22.438Z,995.46
2024-02-29T00:38:32.964Z,995.47
2024-02-29T00:38:43.454Z,995.46
2024-02-29T00:39:01.947Z,995.46
2024-02-29T00:39:11.799Z,995.46
2024-02-29T00:39:15.981Z,995.46
2024-02-29T00:39:25.450Z,995.47
2024-02-29T00:39:36.515Z,995.46
2024-02-29T00:39:47.007Z,995.47
2024-02-29T00:39:57.490Z,995.46
2024-02-29T00:40:07.975Z,995.46
2024-02-29T00:40:18.482Z,995.46
2024-02-29T00:40:28.991Z,995.46
2024-02-29T00:40:39.459Z,995.46
2024-02-29T00:40:50.456Z,995.46
2024-02-29T00:41:00.971Z,995.46
2024-02-29T00:41:11.523Z,995.46
2024-02-29T00:41:21.975Z,995.46
2024-02-29T00:41:32.469Z,995.45
2024-02-29T00:41:43.465Z,995.45
2024-02-29T00:41:53.967Z,995.45
2024-02-29T00:42:04.473Z,995.45
2024-02-29T00:42:14.976Z,995.45
2024-02-29T00:42:25.502Z,995.44
2024-02-29T00:42:36.496Z,995.44
2024-02-29T00:42:47.485Z,995.44
2024-02-29T00:42:58.514Z,995.44
2024-02-29T00:43:09.534Z,995.44
2024-02-29T00:43:20.464Z,995.44
2024-02-29T00:43:30.967Z,995.44
2024-02-29T00:43:41.470Z,995.44
2024-02-29T00:43:52.467Z,995.44
2024-02-29T00:44:02.969Z,995.43
2024-02-29T00:44:13.981Z,995.43
2024-02-29T00:44:24.963Z,995.44
2024-02-29T00:44:35.479Z,995.43
2024-02-29T00:44:45.974Z,995.43
2024-02-29T00:44:56.482Z,995.43
2024-02-29T00:45:06.967Z,995.43
2024-02-29T00:45:17.475Z,995.42
2024-02-29T00:45:28.106Z,995.42
2024-02-29T00:45:38.990Z,995.42
2024-02-29T00:45:49.993Z,995.42
2024-02-29T00:46:00.531Z,995.42
2024-02-29T00:46:11.010Z,995.42
2024-02-29T00:46:21.520Z,995.41
2024-02-29T00:46:31.990Z,995.41
2024-02-29T00:46:42.480Z,995.40
2024-02-29T00:46:52.979Z,995.40
2024-02-29T00:47:03.483Z,995.41
2024-02-29T00:47:14.471Z,995.41
2024-02-29T00:47:25.522Z,995.40
2024-02-29T00:47:36.003Z,995.39
2024-02-29T00:47:46.510Z,995.38
2024-02-29T00:47:57.030Z,995.38
2024-02-29T00:48:07.537Z,995.39
2024-02-29T00:48:17.979Z,995.39
2024-02-29T00:48:28.538Z,995.40
2024-02-29T00:48:39.042Z,995.40
2024-02-29T00:48:50.024Z,995.40
2024-02-29T00:49:00.508Z,995.39
2024-02-29T00:49:11.050Z,995.40
2024-02-29T00:49:21.490Z,995.40
2024-02-29T00:49:32.002Z,995.40
2024-02-29T00:49:42.488Z,995.40
2024-02-29T00:49:53.017Z,995.40
2024-02-29T00:50:03.499Z,995.39
2024-02-29T00:50:13.995Z,995.40
2024-02-29T00:50:24.498Z,995.39
2024-02-29T00:50:35.129Z,995.39
2024-02-29T00:50:45.547Z,995.39
2024-02-29T00:50:56.011Z,995.38
2024-02-29T00:51:06.508Z,995.38
2024-02-29T00:51:17.001Z,995.38
2024-02-29T00:51:27.505Z,995.37
2024-02-29T00:51:38.047Z,995.37
2024-02-29T00:51:48.587Z,995.37
2024-02-29T00:51:59.135Z,995.36
2024-02-29T00:52:09.846Z,995.37
2024-02-29T00:52:20.070Z,995.37
2024-02-29T00:52:30.513Z,995.37
2024-02-29T00:52:41.008Z,995.38
2024-02-29T00:52:51.524Z,995.37
2024-02-29T00:53:02.020Z,995.37
2024-02-29T00:53:12.565Z,995.36
2024-02-29T00:53:23.033Z,995.35
2024-02-29T00:53:33.526Z,995.35
2024-02-29T00:53:44.533Z,995.35
2024-02-29T00:53:55.029Z,995.34
2024-02-29T00:54:05.537Z,995.34
2024-02-29T00:54:16.027Z,995.34
2024-02-29T00:54:26.682Z,995.33
2024-02-29T00:54:37.076Z,995.33
2024-02-29T00:54:47.592Z,995.32
2024-02-29T00:54:58.116Z,995.32
2024-02-29T00:55:08.735Z,995.31
2024-02-29T00:55:19.105Z,995.31
2024-02-29T00:55:29.554Z,995.30
2024-02-29T00:55:40.052Z,995.30
2024-02-29T00:55:51.056Z,995.30
2024-02-29T00:56:01.561Z,995.30
2024-02-29T00:56:12.047Z,995.30
2024-02-29T00:56:22.562Z,995.29
2024-02-29T00:56:33.060Z,995.29
2024-02-29T00:56:43.599Z,995.28
2024-02-29T00:56:54.057Z,995.28
2024-02-29T00:57:04.555Z,995.28
2024-02-29T00:57:15.050Z,995.28
2024-02-29T00:57:25.553Z,995.28
2024-02-29T00:57:36.084Z,995.27
2024-02-29T00:57:47.117Z,995.27
2024-02-29T00:57:58.104Z,995.27
2024-02-29T00:58:09.162Z,995.27
2024-02-29T00:58:19.567Z,995.27
2024-02-29T00:58:30.618Z,995.26
2024-02-29T00:58:41.065Z,995.26
2024-02-29T00:58:51.564Z,995.26
2024-02-29T00:59:02.592Z,995.25
2024-02-29T00:59:13.560Z,995.25
2024-02-29T00:59:24.104Z,995.25
2024-02-29T00:59:34.568Z,995.24
2024-02-29T00:59:45.551Z,995.24
2024-02-29T00:59:56.594Z,995.24
2024-02-29T01:00:07.061Z,995.24
2024-02-29T01:00:17.554Z,995.24
2024-02-29T01:00:28.579Z,995.23
2024-02-29T01:00:39.625Z,995.23
2024-02-29T01:00:50.137Z,995.23
2024-02-29T01:01:00.643Z,995.22
2024-02-29T01:01:11.697Z,995.22
2024-02-29T01:01:22.153Z,995.22
2024-02-29T01:01:32.628Z,995.22
2024-02-29T01:01:43.149Z,995.22
2024-02-29T01:01:53.639Z,995.21
2024-02-29T01:02:04.112Z,995.22
2024-02-29T01:02:14.596Z,995.22
2024-02-29T01:02:25.579Z,995.22
2024-02-29T01:02:36.067Z,995.22
2024-02-29T01:02:46.568Z,995.21
2024-02-29T01:02:57.076Z,995.21
2024-02-29T01:03:07.574Z,995.21
2024-02-29T01:03:18.578Z,995.20
2024-02-29T01:03:30.065Z,995.20
2024-02-29T01:03:39.636Z,995.19
2024-02-29T01:03:50.113Z,995.19
2024-02-29T01:04:01.144Z,995.19
2024-02-29T01:04:11.619Z,995.19
2024-02-29T01:04:22.628Z,995.19
2024-02-29T01:04:33.706Z,995.19
2024-02-29T01:04:44.103Z,995.19
2024-02-29T01:04:54.579Z,995.19
2024-02-29T01:05:05.094Z,995.19
2024-02-29T01:05:15.583Z,995.19
2024-02-29T01:05:26.586Z,995.19
2024-02-29T01:05:37.599Z,995.19
2024-02-29T01:05:48.080Z,995.19
2024-02-29T01:05:59.091Z,995.18
2024-02-29T01:06:09.586Z,995.19
2024-02-29T01:06:20.581Z,995.19
2024-02-29T01:06:31.148Z,995.19
2024-02-29T01:06:41.608Z,995.19
2024-02-29T01:06:52.110Z,995.18
2024-02-29T01:07:02.679Z,995.18
2024-02-29T01:07:13.167Z,995.19
2024-02-29T01:07:23.608Z,995.19
2024-02-29T01:07:34.589Z,995.18
2024-02-29T01:07:45.598Z,995.17
2024-02-29T01:07:56.104Z,995.16
2024-02-29T01:08:06.594Z,995.17
2024-02-29T01:08:17.087Z,995.16
2024-02-29T01:08:27.588Z,995.16
2024-02-29T01:08:38.595Z,995.16
2024-02-29T01:08:49.095Z,995.15
2024-02-29T01:08:59.610Z,995.16
2024-02-29T01:09:10.080Z,995.16
2024-02-29T01:09:20.600Z,995.16
2024-02-29T01:09:31.191Z,995.16
2024-02-29T01:09:41.677Z,995.16
2024-02-29T01:09:52.608Z,995.16
2024-02-29T01:10:03.101Z,995.16
2024-02-29T01:10:14.277Z,995.17
2024-02-29T01:10:25.088Z,995.16
2024-02-29T01:10:35.593Z,995.16
2024-02-29T01:10:46.617Z,995.16
2024-02-29T01:10:57.623Z,995.15
2024-02-29T01:11:08.677Z,995.15
2024-02-29T01:11:19.164Z,995.15
2024-02-29T01:11:29.669Z,995.15
2024-02-29T01:11:40.680Z,995.15
2024-02-29T01:11:51.095Z,995.15
2024-02-29T01:12:01.605Z,995.15
2024-02-29T01:12:12.100Z,995.15
2024-02-29T01:12:22.604Z,995.14
2024-02-29T01:12:33.129Z,995.14
2024-02-29T01:12:43.668Z,995.14
2024-02-29T01:12:54.145Z,995.14
2024-02-29T01:13:04.672Z,995.14
2024-02-29T01:13:15.207Z,995.14
2024-02-29T01:13:25.618Z,995.14
2024-02-29T01:13:36.136Z,995.14
2024-02-29T01:13:46.629Z,995.14
2024-02-29T01:13:57.130Z,995.14
2024-02-29T01:14:07.630Z,995.14
2024-02-29T01:14:18.131Z,995.13
2024-02-29T01:14:28.634Z,995.13
2024-02-29T01:14:39.638Z,995.13
2024-02-29T01:14:50.632Z,995.13
2024-02-29T01:15:01.140Z,995.13
2024-02-29T01:15:11.637Z,995.13
2024-02-29T01:15:22.688Z,995.14
2024-02-29T01:15:33.670Z,995.14
2024-02-29T01:15:44.144Z,995.14
2024-02-29T01:15:54.644Z,995.14
2024-02-29T01:16:05.236Z,995.13
2024-02-29T01:16:15.689Z,995.12
2024-02-29T01:16:26.142Z,995.11
2024-02-29T01:16:36.636Z,995.11
2024-02-29T01:16:47.625Z,995.12
2024-02-29T01:16:58.220Z,995.12
2024-02-29T01:17:08.627Z,995.13
2024-02-29T01:17:19.125Z,995.14
2024-02-29T01:17:29.659Z,995.14
2024-02-29T01:17:40.163Z,995.14
2024-02-29T01:17:51.837Z,995.13
2024-02-29T01:18:01.162Z,995.12
2024-02-29T01:18:11.704Z,995.11
2024-02-29T01:18:22.650Z,995.10
2024-02-29T01:18:33.173Z,995.09
2024-02-29T01:18:43.650Z,995.09
2024-02-29T01:18:54.676Z,995.09
2024-02-29T01:19:05.173Z,995.09
2024-02-29T01:19:16.178Z,995.09
2024-02-29T01:19:27.151Z,995.10
2024-02-29T01:19:37.676Z,995.11
2024-02-29T01:19:48.141Z,995.11
2024-02-29T01:19:59.155Z,995.11
2024-02-29T01:20:10.147Z,995.11
2024-02-29T01:20:20.645Z,995.11
2024-02-29T01:20:31.189Z,995.10
2024-02-29T01:20:41.668Z,995.09
2024-02-29T01:20:52.648Z,995.08
2024-02-29T01:21:03.144Z,995.07
2024-02-29T01:21:13.679Z,995.07
2024-02-29T01:21:24.134Z,995.07
2024-02-29T01:21:34.721Z,995.07
2024-02-29T01:21:45.170Z,995.07
2024-02-29T01:21:56.185Z,995.07
2024-02-29T01:22:07.231Z,995.07
2024-02-29T01:22:18.311Z,995.07
2024-02-29T01:22:28.202Z,995.07
2024-02-29T01:22:38.648Z,995.07
2024-02-29T01:22:49.154Z,995.07
2024-02-29T01:22:59.673Z,995.07
2024-02-29T01:23:10.146Z,995.07
2024-02-29T01:23:21.152Z,995.06
2024-02-29T01:23:32.139Z,995.06
2024-02-29T01:23:43.154Z,995.06
2024-02-29T01:23:53.644Z,995.07
2024-02-29T01:24:04.640Z,995.07
2024-02-29T01:24:15.132Z,995.08
2024-02-29T01:24:26.147Z,995.08
2024-02-29T01:24:37.204Z,995.07
2024-02-29T01:24:48.171Z,995.06
2024-02-29T01:24:59.224Z,995.06
2024-02-29T01:25:09.688Z,995.06
2024-02-29T01:25:20.147Z,995.05
2024-02-29T01:25:31.197Z,995.05
2024-02-29T01:25:41.654Z,995.04
2024-02-29T01:25:52.148Z,995.04
2024-02-29T01:26:02.690Z,995.04
2024-02-29T01:26:13.147Z,995.04
2024-02-29T01:26:23.633Z,995.04
2024-02-29T01:26:34.139Z,995.04
2024-02-29T01:26:44.637Z,995.03
2024-02-29T01:26:55.644Z,995.03
2024-02-29T01:27:06.655Z,995.03
2024-02-29T01:27:17.142Z,995.02
2024-02-29T01:27:27.627Z,995.02
2024-02-29T01:27:38.655Z,995.02
2024-02-29T01:27:49.182Z,995.02
2024-02-29T01:28:00.172Z,995.01
2024-02-29T01:28:10.678Z,995.01
2024-02-29T01:28:21.145Z,995.00
2024-02-29T01:28:31.624Z,995.00
2024-02-29T01:28:42.637Z,995.00
2024-02-29T01:28:53.118Z,995.00
2024-02-29T01:29:03.627Z,995.00
2024-02-29T01:29:14.621Z,995.00
2024-02-29T01:29:25.639Z,994.99
2024-02-29T01:29:36.131Z,995.00
2024-02-29T01:29:47.115Z,994.99
2024-02-29T01:29:58.109Z,994.99
2024-02-29T01:30:09.116Z,994.99
2024-02-29T01:30:19.608Z,994.99
2024-02-29T01:30:30.641Z,994.98
2024-02-29T01:30:41.234Z,994.98
2024-02-29T01:30:51.674Z,994.97
2024-02-29T01:31:02.689Z,994.97
2024-02-29T01:31:13.252Z,994.97
2024-02-29T01:31:23.627Z,994.97
2024-02-29T01:31:34.111Z,994.96
2024-02-29T01:31:45.100Z,994.96
2024-02-29T01:31:56.110Z,994.97
2024-02-29T01:32:15.674Z,994.97
2024-02-29T01:32:25.688Z,994.97
2024-02-29T01:32:31.543Z,994.97
2024-02-29T01:32:39.174Z,994.97
2024-02-29T01:32:49.632Z,994.96
2024-02-29T01:33:00.671Z,994.96
2024-02-29T01:33:11.676Z,994.96
2024-02-29T01:33:22.645Z,994.96
2024-02-29T01:33:33.143Z,994.96
2024-02-29T01:33:44.164Z,994.96
2024-02-29T01:33:55.145Z,994.97
2024-02-29T01:34:05.658Z,994.97
2024-02-29T01:34:16.644Z,994.97
2024-02-29T01:34:27.597Z,994.98
2024-02-29T01:34:38.593Z,994.99
2024-02-29T01:34:49.098Z,994.99
2024-02-29T01:34:59.599Z,994.98
2024-02-29T01:35:10.584Z,994.99
2024-02-29T01:35:21.595Z,994.99
2024-02-29T01:35:32.091Z,994.99
2024-02-29T01:35:42.622Z,994.99
2024-02-29T01:35:53.154Z,994.99
2024-02-29T01:36:03.633Z,994.99
2024-02-29T01:36:14.599Z,994.99
2024-02-29T01:36:25.104Z,994.99
2024-02-29T01:36:36.097Z,994.99
2024-02-29T01:36:46.616Z,994.99
2024-02-29T01:36:57.629Z,994.99
2024-02-29T01:37:08.626Z,994.99
2024-02-29T01:37:19.084Z,994.99
2024-02-29T01:37:29.582Z,994.98
2024-02-29T01:37:40.088Z,994.98
2024-02-29T01:37:50.582Z,994.98
2024-02-29T01:38:01.118Z,994.98
2024-02-29T01:38:11.589Z,994.99
2024-02-29T01:38:22.086Z,994.98
2024-02-29T01:38:33.087Z,994.99
2024-02-29T01:38:43.596Z,994.99
2024-02-29T01:38:54.595Z,994.99
2024-02-29T01:39:05.092Z,994.98
2024-02-29T01:39:15.593Z,994.98
2024-02-29T01:39:26.089Z,994.97
2024-02-29T01:39:36.617Z,994.97
2024-02-29T01:39:47.107Z,994.96
2024-02-29T01:39:57.619Z,994.96
2024-02-29T01:40:08.763Z,994.96
2024-02-29T01:40:19.184Z,994.95
2024-02-29T01:40:29.593Z,994.95
2024-02-29T01:40:40.593Z,994.94
2024-02-29T01:40:51.096Z,994.94
2024-02-29T01:41:01.643Z,994.94
2024-02-29T01:41:12.600Z,994.94
2024-02-29T01:41:23.104Z,994.94
2024-02-29T01:41:33.623Z,994.93
2024-02-29T01:41:44.107Z,994.93
2024-02-29T01:41:54.602Z,994.93
2024-02-29T01:42:05.109Z,994.93
2024-02-29T01:42:15.616Z,994.93
2024-02-29T01:42:26.598Z,994.93
2024-02-29T01:42:37.158Z,994.93
2024-02-29T01:42:47.618Z,994.93
2024-02-29T01:42:58.170Z,994.92
2024-02-29T01:43:09.192Z,994.92
2024-02-29T01:43:19.658Z,994.92
2024-02-29T01:43:30.111Z,994.92
2024-02-29T01:43:40.628Z,994.92
2024-02-29T01:43:51.128Z,994.92
2024-02-29T01:44:01.617Z,994.91
2024-02-29T01:44:12.132Z,994.91
2024-02-29T01:44:22.624Z,994.91
2024-02-29T01:44:33.618Z,994.91
2024-02-29T01:44:44.122Z,994.91
2024-02-29T01:44:54.624Z,994.91
2024-02-29T01:45:05.621Z,994.91
2024-02-29T01:45:16.120Z,994.91
2024-02-29T01:45:26.614Z,994.91
2024-02-29T01:45:37.147Z,994.91
2024-02-29T01:45:48.178Z,994.91
2024-02-29T01:45:59.135Z,994.91
2024-02-29T01:46:09.783Z,994.91
2024-02-29T01:46:20.618Z,994.90
2024-02-29T01:46:31.129Z,994.91
2024-02-29T01:46:41.636Z,994.91
2024-02-29T01:46:52.117Z,994.91
2024-02-29T01:47:02.610Z,994.90
2024-02-29T01:47:13.626Z,994.90
2024-02-29T01:47:24.224Z,994.90
2024-02-29T01:47:34.680Z,994.90
2024-02-29T01:47:45.650Z,994.89
2024-02-29T01:47:56.141Z,994.90
2024-02-29T01:48:06.639Z,994.89
2024-02-29T01:48:17.115Z,994.89
2024-02-29T01:48:28.110Z,994.89
2024-02-29T01:48:38.654Z,994.89
2024-02-29T01:48:49.677Z,994.89
2024-02-29T01:49:00.648Z,994.88
2024-02-29T01:49:11.637Z,994.88
2024-02-29T01:49:22.107Z,994.87
2024-02-29T01:49:32.602Z,994.87
2024-02-29T01:49:43.116Z,994.87
2024-02-29T01:49:54.110Z,994.87
2024-02-29T01:50:05.115Z,994.87
2024-02-29T01:50:15.597Z,994.87
2024-02-29T01:50:26.183Z,994.87
2024-02-29T01:50:37.115Z,994.86
2024-02-29T01:50:48.098Z,994.85
2024-02-29T01:50:59.119Z,994.85
2024-02-29T01:51:09.619Z,994.85
2024-02-29T01:51:20.660Z,994.85
2024-02-29T01:51:31.625Z,994.84
2024-02-29T01:51:42.112Z,994.83
2024-02-29T01:51:52.680Z,994.83
2024-02-29T01:52:03.626Z,994.83
2024-02-29T01:52:14.126Z,994.82
2024-02-29T01:52:24.596Z,994.82
2024-02-29T01:52:35.599Z,994.81
2024-02-29T01:52:46.636Z,994.81
2024-02-29T01:52:57.602Z,994.81
2024-02-29T01:53:08.085Z,994.81
2024-02-29T01:53:19.095Z,994.80
2024-02-29T01:53:29.590Z,994.79
2024-02-29T01:53:40.617Z,994.79
2024-02-29T01:53:51.621Z,994.79
2024-02-29T01:54:02.618Z,994.79
2024-02-29T01:54:13.097Z,994.79
2024-02-29T01:54:23.592Z,994.78
2024-02-29T01:54:34.142Z,994.78
2024-02-29T01:54:44.606Z,994.78
2024-02-29T01:54:55.142Z,994.78
2024-02-29T01:55:05.621Z,994.77
2024-02-29T01:55:16.160Z,994.77
2024-02-29T01:55:26.596Z,994.77
2024-02-29T01:55:37.595Z,994.77
2024-02-29T01:55:48.584Z,994.77
2024-02-29T01:55:59.082Z,994.77
2024-02-29T01:56:10.087Z,994.76
2024-02-29T01:56:20.609Z,994.76
2024-02-29T01:56:31.143Z,994.76
2024-02-29T01:56:41.592Z,994.76
2024-02-29T01:56:52.586Z,994.76
2024-02-29T01:57:03.585Z,994.76
2024-02-29T01:57:14.588Z,994.76
2024-02-29T01:57:25.072Z,994.76
2024-02-29T01:57:35.658Z,994.75
2024-02-29T01:57:46.591Z,994.75
2024-02-29T01:57:57.134Z,994.75
2024-02-29T01:58:08.470Z,994.75
2024-02-29T01:58:18.163Z,994.75
2024-02-29T01:58:28.581Z,994.74
2024-02-29T01:58:39.100Z,994.74
2024-02-29T01:58:49.574Z,994.74
2024-02-29T01:59:00.577Z,994.74
2024-02-29T01:59:11.598Z,994.74
2024-02-29T01:59:22.589Z,994.73
2024-02-29T01:59:33.077Z,994.73
2024-02-29T01:59:44.063Z,994.73
2024-02-29T01:59:54.593Z,994.73
2024-02-29T02:00:05.572Z,994.72
2024-02-29T02:00:16.088Z,994.72
2024-02-29T02:00:26.623Z,994.72
2024-02-29T02:00:37.643Z,994.71
2024-02-29T02:00:48.175Z,994.70
2024-02-29T02:00:59.127Z,994.70
2024-02-29T02:01:09.689Z,994.70
2024-02-29T02:01:20.668Z,994.69
2024-02-29T02:01:31.677Z,994.69
2024-02-29T02:01:42.198Z,994.69
2024-02-29T02:01:52.592Z,994.68
2024-02-29T02:02:03.102Z,994.68
2024-02-29T02:02:13.568Z,994.67
2024-02-29T02:02:24.063Z,994.67
2024-02-29T02:02:34.559Z,994.67
2024-02-29T02:02:45.074Z,994.66
2024-02-29T02:02:55.611Z,994.66
2024-02-29T02:03:06.574Z,994.65
2024-02-29T02:03:17.063Z,994.66
2024-02-29T02:03:27.573Z,994.65
2024-02-29T02:03:38.204Z,994.65
2024-02-29T02:03:48.584Z,994.65
2024-02-29T02:03:59.120Z,994.64
2024-02-29T02:04:09.615Z,994.64
2024-02-29T02:04:20.085Z,994.64
2024-02-29T02:04:31.096Z,994.64
2024-02-29T02:04:42.076Z,994.64
2024-02-29T02:04:52.596Z,994.64
2024-02-29T02:05:03.572Z,994.64
2024-02-29T02:05:14.565Z,994.64
2024-02-29T02:05:25.070Z,994.63
2024-02-29T02:05:35.577Z,994.63
2024-02-29T02:05:46.593Z,994.63
2024-02-29T02:05:57.561Z,994.63
2024-02-29T02:06:08.091Z,994.63
2024-02-29T02:06:18.566Z,994.62
2024-02-29T02:06:29.592Z,994.62
2024-02-29T02:06:40.112Z,994.62
2024-02-29T02:06:50.600Z,994.62
2024-02-29T02:07:01.113Z,994.62
2024-02-29T02:07:12.093Z,994.62
2024-02-29T02:07:23.067Z,994.63
2024-02-29T02:07:33.564Z,994.63
2024-02-29T02:07:44.069Z,994.62
2024-02-29T02:07:54.562Z,994.62
2024-02-29T02:08:05.134Z,994.62
2024-02-29T02:08:15.562Z,994.62
2024-02-29T02:08:26.075Z,994.62
2024-02-29T02:08:36.571Z,994.63
2024-02-29T02:08:47.070Z,994.63
2024-02-29T02:08:57.577Z,994.62
2024-02-29T02:09:08.107Z,994.62
2024-02-29T02:09:18.579Z,994.62
2024-02-29T02:09:29.116Z,994.62
2024-02-29T02:09:39.677Z,994.62
2024-02-29T02:09:50.110Z,994.62
2024-02-29T02:10:00.660Z,994.62
2024-02-29T02:10:11.199Z,994.63
2024-02-29T02:10:21.651Z,994.63
2024-02-29T02:10:32.100Z,994.63
2024-02-29T02:10:42.721Z,994.63
2024-02-29T02:10:53.144Z,994.63
2024-02-29T02:11:03.636Z,994.64
2024-02-29T02:11:14.139Z,994.64
2024-02-29T02:11:25.143Z,994.65
2024-02-29T02:11:35.627Z,994.66
2024-02-29T02:11:46.671Z,994.66
2024-02-29T02:11:57.134Z,994.66
2024-02-29T02:12:08.147Z,994.66
2024-02-29T02:12:18.627Z,994.66
2024-02-29T02:12:29.186Z,994.65
2024-02-29T02:12:39.654Z,994.64
2024-02-29T02:12:50.159Z,994.64